Terminal Aerodrome Forecast
Issued by NWS Sioux Falls, SD

Home | Current Version | Previous Version | Text Only | Print | Product List | Glossary On
Versions: 1 2 3 4 5 6 7 8 9 10 11 12 13
000
FTUS43 KFSD 051120
TAFHON
TAF
KHON 051120Z 0512/0612 14005KT P6SM BKN250
     FM051400 16009KT P6SM BKN250
     FM060100 16008KT P6SM SCT040=

USA.gov is the U.S. government's official web portal to all federal, state and local government web resources and services.